Villa Angela, Argentina
Current Conditions -  °F | °C
As of 11:00 PM on Monday 20 Oct 2014 (Local Time) from SARE Reporting Station
Clear Clear  
Wind Chill: 72°   Ceiling: Unl
Heat Index: 72°   Visibility: 6mi
Dew Point: 55°   Wind: 9mph
Humidity: 57%   Direction: 110°ESE
Pressure: 30.06"   Gusts: NA
Location:  27.58°S, 60.72°W
Report Text: SARE 210200Z 11008KT CAVOK 22/13 Q1018
Loading
Personal Weather Stations






























Interactive Weather Map
Tropical Storm Tracking
New forecast layout! Learn more

10-Day Weather Forecast

Advertisements
Track Severe Weather on mobile